Airfield :
LOGIN :

Register | Disclaimer

   EN    FR    IT 

 










Legend :    VFR   Marginal VFR   IFR   Intensive IFR   Very Intensive IFR
Visi :
Ceiling :
>= 8 km
>= 3000ft
5 to 8 km
1000 to 3000 ft
1500m to 5 km
500 to 1000 ft
800 to 1500m
200 to 500 ft
< 800m
< 200 ft
Symbols :   Thunderstorms  Fog  Heavy snow  Heavy precipitations  Wind > 20 kt
SIGMETs :     Misc.  Thunderstorms  Icing  Turbulence  Mountain Waves  Volcanic Ashes







- Airport Elevation : 19 ft
- IATA code : BEB
- Download approach charts


EGPL - Benbecula

CURRENT METAR :
  • 181050Z 13017KT 9999 -SHRA BKN018 05/02 Q1006

EXPIRED METARs :
  • 181020Z 14019KT 9999 VCSH FEW014 BKN018 05/02 Q1006
  • 180950Z 13019KT 9999 -SHRA FEW006 SCT014 BKN020 05/01 Q1006
  • 180920Z 13019KT 9999 VCSH FEW014 BKN041 05/01 Q1006
  • 180850Z 12018KT 9999 VCSH FEW012 BKN020 04/02 Q1006
  • 180820Z 13019KT 9999 VCSH FEW012 SCT020 BKN024 04/02 Q1007

TAF TAF EGPL
Valid from the 18 at 09:00 until the 18 at 17:00 UTC


180800Z 1809/1817 14022KT 9999 SCT020 BKN040
TEMPO 1809/1817 BKN012
PROB30
TEMPO 1812/1817 6000 -RA BKN008
ATIS : +44 1870 604 818
No reported NOTAMs for that airfield.



MET'MAP, your aeronautical weather chart ! - Copyright ORBIFLY December 2007 - Disclaimer

ORBIFLY MET'MAP TEAM :

Programming & Development : Alexandra Zaïnal
Concept & Development : Baudouin d'Aumeries
Co-Development & Prog : Marc-Olivier Méhu
Technical & hardware support : Manuel Goepfert

Contact : metmap@orbifly.com




SOURCES & CREDITS :

   NOAA